sensor_id;sensor_type;location;lat;lon;timestamp;P1;durP1;ratioP1;P2;durP2;ratioP2
54428;SDS011;40337;52.978;6.310;2023-07-20T00:01:56;5.00;;;3.53;;
54428;SDS011;40337;52.978;6.310;2023-07-20T00:04:22;4.10;;;3.35;;
54428;SDS011;40337;52.978;6.310;2023-07-20T00:06:48;4.20;;;3.28;;
54428;SDS011;40337;52.978;6.310;2023-07-20T00:09:13;4.18;;;3.30;;
54428;SDS011;40337;52.978;6.310;2023-07-20T00:11:39;5.18;;;3.50;;
54428;SDS011;40337;52.978;6.310;2023-07-20T00:14:05;4.30;;;3.55;;
54428;SDS011;40337;52.978;6.310;2023-07-20T00:16:31;4.15;;;3.55;;
54428;SDS011;40337;52.978;6.310;2023-07-20T00:18:56;5.30;;;4.00;;
54428;SDS011;40337;52.978;6.310;2023-07-20T00:21:22;4.18;;;3.75;;
54428;SDS011;40337;52.978;6.310;2023-07-20T00:23:48;4.60;;;3.58;;
54428;SDS011;40337;52.978;6.310;2023-07-20T00:26:13;5.65;;;4.00;;
54428;SDS011;40337;52.978;6.310;2023-07-20T00:28:39;5.28;;;3.97;;
54428;SDS011;40337;52.978;6.310;2023-07-20T00:31:04;4.78;;;3.97;;
54428;SDS011;40337;52.978;6.310;2023-07-20T00:33:30;4.85;;;3.75;;
54428;SDS011;40337;52.978;6.310;2023-07-20T00:35:56;4.40;;;3.70;;
54428;SDS011;40337;52.978;6.310;2023-07-20T00:38:21;4.22;;;3.83;;
54428;SDS011;40337;52.978;6.310;2023-07-20T00:40:47;4.78;;;3.83;;
54428;SDS011;40337;52.978;6.310;2023-07-20T00:43:14;4.63;;;3.85;;
54428;SDS011;40337;52.978;6.310;2023-07-20T00:45:40;5.45;;;3.80;;
54428;SDS011;40337;52.978;6.310;2023-07-20T00:48:06;5.55;;;3.78;;
54428;SDS011;40337;52.978;6.310;2023-07-20T00:50:32;4.38;;;3.55;;
54428;SDS011;40337;52.978;6.310;2023-07-20T00:52:58;4.80;;;3.40;;
54428;SDS011;40337;52.978;6.310;2023-07-20T00:55:24;5.00;;;3.60;;
54428;SDS011;40337;52.978;6.310;2023-07-20T00:57:51;4.05;;;3.45;;
54428;SDS011;40337;52.978;6.310;2023-07-20T01:00:18;5.00;;;3.67;;
54428;SDS011;40337;52.978;6.310;2023-07-20T01:02:44;4.05;;;3.30;;
54428;SDS011;40337;52.978;6.310;2023-07-20T01:05:10;3.90;;;3.40;;
54428;SDS011;40337;52.978;6.310;2023-07-20T01:07:51;5.10;;;3.35;;
54428;SDS011;40337;52.978;6.310;2023-07-20T01:10:39;4.78;;;3.60;;
54428;SDS011;40337;52.978;6.310;2023-07-20T01:13:10;7.85;;;3.45;;
54428;SDS011;40337;52.978;6.310;2023-07-20T01:15:38;3.67;;;3.20;;
54428;SDS011;40337;52.978;6.310;2023-07-20T01:18:04;3.72;;;3.22;;
54428;SDS011;40337;52.978;6.310;2023-07-20T01:20:30;5.55;;;3.33;;
54428;SDS011;40337;52.978;6.310;2023-07-20T01:25:36;6.60;;;3.50;;
54428;SDS011;40337;52.978;6.310;2023-07-20T01:31:22;5.05;;;2.83;;
54428;SDS011;40337;52.978;6.310;2023-07-20T01:33:50;3.58;;;3.08;;
54428;SDS011;40337;52.978;6.310;2023-07-20T01:36:19;3.85;;;3.17;;
54428;SDS011;40337;52.978;6.310;2023-07-20T01:38:46;4.55;;;3.25;;
54428;SDS011;40337;52.978;6.310;2023-07-20T01:41:12;4.00;;;3.30;;
54428;SDS011;40337;52.978;6.310;2023-07-20T01:43:39;3.85;;;3.10;;
54428;SDS011;40337;52.978;6.310;2023-07-20T01:46:04;3.88;;;3.10;;
54428;SDS011;40337;52.978;6.310;2023-07-20T01:48:30;5.32;;;3.25;;
54428;SDS011;40337;52.978;6.310;2023-07-20T01:50:56;4.10;;;3.47;;
54428;SDS011;40337;52.978;6.310;2023-07-20T01:53:22;4.53;;;3.28;;
54428;SDS011;40337;52.978;6.310;2023-07-20T01:55:47;4.20;;;3.45;;
54428;SDS011;40337;52.978;6.310;2023-07-20T01:58:13;5.15;;;3.65;;
54428;SDS011;40337;52.978;6.310;2023-07-20T02:00:38;4.03;;;3.22;;
54428;SDS011;40337;52.978;6.310;2023-07-20T02:03:04;5.43;;;3.50;;
54428;SDS011;40337;52.978;6.310;2023-07-20T02:05:30;3.88;;;3.17;;
54428;SDS011;40337;52.978;6.310;2023-07-20T02:07:56;4.40;;;3.50;;
54428;SDS011;40337;52.978;6.310;2023-07-20T02:10:21;5.18;;;3.30;;
54428;SDS011;40337;52.978;6.310;2023-07-20T02:12:47;5.47;;;3.40;;
54428;SDS011;40337;52.978;6.310;2023-07-20T02:15:13;4.75;;;3.20;;
54428;SDS011;40337;52.978;6.310;2023-07-20T02:17:41;4.15;;;3.38;;
54428;SDS011;40337;52.978;6.310;2023-07-20T02:20:07;6.90;;;3.20;;
54428;SDS011;40337;52.978;6.310;2023-07-20T02:22:35;4.60;;;3.47;;
54428;SDS011;40337;52.978;6.310;2023-07-20T02:25:02;4.20;;;3.38;;
54428;SDS011;40337;52.978;6.310;2023-07-20T02:27:32;4.00;;;3.38;;
54428;SDS011;40337;52.978;6.310;2023-07-20T02:30:01;4.80;;;3.63;;
54428;SDS011;40337;52.978;6.310;2023-07-20T02:32:28;4.20;;;3.45;;
54428;SDS011;40337;52.978;6.310;2023-07-20T02:34:53;4.60;;;3.90;;
54428;SDS011;40337;52.978;6.310;2023-07-20T02:37:19;4.70;;;3.53;;
54428;SDS011;40337;52.978;6.310;2023-07-20T02:39:44;4.30;;;3.58;;
54428;SDS011;40337;52.978;6.310;2023-07-20T02:42:10;4.20;;;3.42;;
54428;SDS011;40337;52.978;6.310;2023-07-20T02:44:36;5.03;;;3.50;;
54428;SDS011;40337;52.978;6.310;2023-07-20T02:47:01;4.53;;;3.72;;
54428;SDS011;40337;52.978;6.310;2023-07-20T02:49:27;4.78;;;3.72;;
54428;SDS011;40337;52.978;6.310;2023-07-20T02:51:53;4.90;;;3.70;;
54428;SDS011;40337;52.978;6.310;2023-07-20T02:54:19;4.38;;;3.25;;
54428;SDS011;40337;52.978;6.310;2023-07-20T02:56:44;4.50;;;3.30;;
54428;SDS011;40337;52.978;6.310;2023-07-20T02:59:10;3.90;;;3.35;;
54428;SDS011;40337;52.978;6.310;2023-07-20T03:01:35;4.35;;;3.10;;
54428;SDS011;40337;52.978;6.310;2023-07-20T03:04:01;4.10;;;3.28;;
54428;SDS011;40337;52.978;6.310;2023-07-20T03:06:27;3.75;;;3.17;;
54428;SDS011;40337;52.978;6.310;2023-07-20T03:08:53;5.45;;;3.38;;
54428;SDS011;40337;52.978;6.310;2023-07-20T03:11:19;4.00;;;2.88;;
54428;SDS011;40337;52.978;6.310;2023-07-20T03:13:45;3.72;;;2.97;;
54428;SDS011;40337;52.978;6.310;2023-07-20T03:16:12;3.78;;;2.67;;
54428;SDS011;40337;52.978;6.310;2023-07-20T03:18:42;3.60;;;2.63;;
54428;SDS011;40337;52.978;6.310;2023-07-20T03:21:08;3.00;;;2.30;;
54428;SDS011;40337;52.978;6.310;2023-07-20T03:23:38;4.22;;;2.60;;
54428;SDS011;40337;52.978;6.310;2023-07-20T03:26:04;3.38;;;1.92;;
54428;SDS011;40337;52.978;6.310;2023-07-20T03:28:30;3.22;;;2.42;;
54428;SDS011;40337;52.978;6.310;2023-07-20T03:30:56;3.10;;;2.15;;
54428;SDS011;40337;52.978;6.310;2023-07-20T03:33:24;2.13;;;1.70;;
54428;SDS011;40337;52.978;6.310;2023-07-20T03:35:51;3.15;;;1.63;;
54428;SDS011;40337;52.978;6.310;2023-07-20T03:38:17;2.20;;;1.63;;
54428;SDS011;40337;52.978;6.310;2023-07-20T03:43:40;3.35;;;1.50;;
54428;SDS011;40337;52.978;6.310;2023-07-20T03:46:06;3.65;;;2.25;;
54428;SDS011;40337;52.978;6.310;2023-07-20T03:48:32;2.75;;;2.03;;
54428;SDS011;40337;52.978;6.310;2023-07-20T03:50:58;2.78;;;2.20;;
54428;SDS011;40337;52.978;6.310;2023-07-20T03:53:23;11.60;;;3.05;;
54428;SDS011;40337;52.978;6.310;2023-07-20T03:55:49;4.40;;;2.70;;
54428;SDS011;40337;52.978;6.310;2023-07-20T03:58:17;5.85;;;2.95;;
54428;SDS011;40337;52.978;6.310;2023-07-20T04:00:48;4.07;;;3.00;;
54428;SDS011;40337;52.978;6.310;2023-07-20T04:03:15;2.78;;;2.05;;
54428;SDS011;40337;52.978;6.310;2023-07-20T04:05:41;3.92;;;3.03;;
54428;SDS011;40337;52.978;6.310;2023-07-20T04:08:07;3.78;;;3.20;;
54428;SDS011;40337;52.978;6.310;2023-07-20T04:10:33;4.63;;;3.38;;
54428;SDS011;40337;52.978;6.310;2023-07-20T04:12:58;4.72;;;2.80;;
54428;SDS011;40337;52.978;6.310;2023-07-20T04:15:25;4.05;;;3.13;;
54428;SDS011;40337;52.978;6.310;2023-07-20T04:17:50;3.60;;;2.80;;
54428;SDS011;40337;52.978;6.310;2023-07-20T04:20:16;3.90;;;3.03;;
54428;SDS011;40337;52.978;6.310;2023-07-20T04:22:43;4.70;;;3.28;;
54428;SDS011;40337;52.978;6.310;2023-07-20T04:25:08;8.05;;;3.30;;
54428;SDS011;40337;52.978;6.310;2023-07-20T04:27:35;4.35;;;3.10;;
54428;SDS011;40337;52.978;6.310;2023-07-20T04:30:01;4.28;;;3.28;;
54428;SDS011;40337;52.978;6.310;2023-07-20T04:32:27;4.95;;;3.25;;
54428;SDS011;40337;52.978;6.310;2023-07-20T04:34:52;3.72;;;2.88;;
54428;SDS011;40337;52.978;6.310;2023-07-20T04:37:18;4.55;;;3.60;;
54428;SDS011;40337;52.978;6.310;2023-07-20T04:39:44;4.05;;;3.20;;
54428;SDS011;40337;52.978;6.310;2023-07-20T04:42:09;5.38;;;3.80;;
54428;SDS011;40337;52.978;6.310;2023-07-20T04:44:35;4.55;;;3.10;;
54428;SDS011;40337;52.978;6.310;2023-07-20T04:47:00;4.72;;;3.38;;
54428;SDS011;40337;52.978;6.310;2023-07-20T04:49:26;4.95;;;3.42;;
54428;SDS011;40337;52.978;6.310;2023-07-20T04:51:51;4.68;;;3.35;;
54428;SDS011;40337;52.978;6.310;2023-07-20T04:54:17;7.40;;;3.50;;
54428;SDS011;40337;52.978;6.310;2023-07-20T04:56:44;5.18;;;3.72;;
54428;SDS011;40337;52.978;6.310;2023-07-20T04:59:09;5.55;;;3.85;;
54428;SDS011;40337;52.978;6.310;2023-07-20T05:01:35;4.88;;;4.10;;
54428;SDS011;40337;52.978;6.310;2023-07-20T05:04:01;6.05;;;4.30;;
54428;SDS011;40337;52.978;6.310;2023-07-20T05:06:27;5.30;;;4.45;;
54428;SDS011;40337;52.978;6.310;2023-07-20T05:08:52;5.22;;;4.13;;
54428;SDS011;40337;52.978;6.310;2023-07-20T05:11:18;5.20;;;3.97;;
54428;SDS011;40337;52.978;6.310;2023-07-20T05:13:43;6.00;;;4.13;;
54428;SDS011;40337;52.978;6.310;2023-07-20T05:16:09;4.60;;;4.03;;
54428;SDS011;40337;52.978;6.310;2023-07-20T05:18:34;5.97;;;4.32;;
54428;SDS011;40337;52.978;6.310;2023-07-20T05:21:00;7.00;;;4.32;;
54428;SDS011;40337;52.978;6.310;2023-07-20T05:23:26;4.68;;;3.95;;
54428;SDS011;40337;52.978;6.310;2023-07-20T05:25:55;6.00;;;4.20;;
54428;SDS011;40337;52.978;6.310;2023-07-20T05:28:22;5.53;;;3.95;;
54428;SDS011;40337;52.978;6.310;2023-07-20T05:30:48;5.20;;;3.92;;
54428;SDS011;40337;52.978;6.310;2023-07-20T05:33:14;6.40;;;3.97;;
54428;SDS011;40337;52.978;6.310;2023-07-20T05:35:39;6.03;;;4.28;;
54428;SDS011;40337;52.978;6.310;2023-07-20T05:38:05;5.10;;;3.92;;
54428;SDS011;40337;52.978;6.310;2023-07-20T05:40:31;5.88;;;3.97;;
54428;SDS011;40337;52.978;6.310;2023-07-20T05:42:57;7.38;;;4.25;;
54428;SDS011;40337;52.978;6.310;2023-07-20T05:45:23;4.82;;;4.00;;
54428;SDS011;40337;52.978;6.310;2023-07-20T05:47:49;5.35;;;4.20;;
54428;SDS011;40337;52.978;6.310;2023-07-20T05:50:15;4.50;;;4.03;;
54428;SDS011;40337;52.978;6.310;2023-07-20T05:52:40;7.95;;;4.18;;
54428;SDS011;40337;52.978;6.310;2023-07-20T05:55:06;5.63;;;3.95;;
54428;SDS011;40337;52.978;6.310;2023-07-20T05:57:32;4.85;;;3.22;;
54428;SDS011;40337;52.978;6.310;2023-07-20T05:59:58;5.10;;;3.35;;
54428;SDS011;40337;52.978;6.310;2023-07-20T06:02:23;4.30;;;3.13;;
54428;SDS011;40337;52.978;6.310;2023-07-20T06:04:49;5.55;;;3.45;;
54428;SDS011;40337;52.978;6.310;2023-07-20T06:07:15;6.28;;;3.13;;
54428;SDS011;40337;52.978;6.310;2023-07-20T06:09:40;5.10;;;3.10;;
54428;SDS011;40337;52.978;6.310;2023-07-20T06:12:06;4.00;;;2.60;;
54428;SDS011;40337;52.978;6.310;2023-07-20T06:14:34;4.72;;;3.30;;
54428;SDS011;40337;52.978;6.310;2023-07-20T06:17:00;4.55;;;3.30;;
54428;SDS011;40337;52.978;6.310;2023-07-20T06:19:25;4.05;;;3.15;;
54428;SDS011;40337;52.978;6.310;2023-07-20T06:21:51;6.13;;;3.10;;
54428;SDS011;40337;52.978;6.310;2023-07-20T06:24:17;5.43;;;3.15;;
54428;SDS011;40337;52.978;6.310;2023-07-20T06:26:43;5.20;;;2.90;;
54428;SDS011;40337;52.978;6.310;2023-07-20T06:29:08;4.40;;;2.50;;
54428;SDS011;40337;52.978;6.310;2023-07-20T06:31:34;5.00;;;2.70;;
54428;SDS011;40337;52.978;6.310;2023-07-20T06:34:01;7.70;;;2.38;;
54428;SDS011;40337;52.978;6.310;2023-07-20T06:36:26;3.63;;;2.22;;
54428;SDS011;40337;52.978;6.310;2023-07-20T06:38:52;5.10;;;2.20;;
54428;SDS011;40337;52.978;6.310;2023-07-20T06:41:18;3.75;;;1.75;;
54428;SDS011;40337;52.978;6.310;2023-07-20T06:43:44;5.07;;;2.20;;
54428;SDS011;40337;52.978;6.310;2023-07-20T06:46:10;3.45;;;1.90;;
54428;SDS011;40337;52.978;6.310;2023-07-20T06:48:35;3.97;;;1.80;;
54428;SDS011;40337;52.978;6.310;2023-07-20T06:51:01;3.47;;;1.67;;
54428;SDS011;40337;52.978;6.310;2023-07-20T06:53:27;3.20;;;1.45;;
54428;SDS011;40337;52.978;6.310;2023-07-20T06:55:53;3.45;;;1.80;;
54428;SDS011;40337;52.978;6.310;2023-07-20T06:58:19;2.88;;;1.60;;
54428;SDS011;40337;52.978;6.310;2023-07-20T07:00:46;6.15;;;2.10;;
54428;SDS011;40337;52.978;6.310;2023-07-20T07:03:12;3.13;;;1.60;;
54428;SDS011;40337;52.978;6.310;2023-07-20T07:05:37;5.50;;;1.60;;
54428;SDS011;40337;52.978;6.310;2023-07-20T07:08:04;4.32;;;1.40;;
54428;SDS011;40337;52.978;6.310;2023-07-20T07:10:30;3.13;;;1.60;;
54428;SDS011;40337;52.978;6.310;2023-07-20T07:12:55;4.15;;;1.60;;
54428;SDS011;40337;52.978;6.310;2023-07-20T07:15:21;3.80;;;1.80;;
54428;SDS011;40337;52.978;6.310;2023-07-20T07:17:46;4.35;;;1.63;;
54428;SDS011;40337;52.978;6.310;2023-07-20T07:20:12;4.45;;;1.60;;
54428;SDS011;40337;52.978;6.310;2023-07-20T07:22:38;3.88;;;1.60;;
54428;SDS011;40337;52.978;6.310;2023-07-20T07:25:04;3.25;;;1.30;;
54428;SDS011;40337;52.978;6.310;2023-07-20T07:27:29;2.60;;;1.20;;
54428;SDS011;40337;52.978;6.310;2023-07-20T07:29:55;3.55;;;1.25;;
54428;SDS011;40337;52.978;6.310;2023-07-20T07:32:20;2.38;;;1.35;;
54428;SDS011;40337;52.978;6.310;2023-07-20T07:34:46;3.65;;;1.40;;
54428;SDS011;40337;52.978;6.310;2023-07-20T07:37:12;3.90;;;1.40;;
54428;SDS011;40337;52.978;6.310;2023-07-20T07:39:38;3.20;;;1.20;;
54428;SDS011;40337;52.978;6.310;2023-07-20T07:42:04;2.55;;;1.10;;
54428;SDS011;40337;52.978;6.310;2023-07-20T07:44:30;2.50;;;1.10;;
54428;SDS011;40337;52.978;6.310;2023-07-20T07:46:56;3.35;;;1.42;;
54428;SDS011;40337;52.978;6.310;2023-07-20T07:49:21;2.22;;;1.10;;
54428;SDS011;40337;52.978;6.310;2023-07-20T07:51:47;3.70;;;1.20;;
54428;SDS011;40337;52.978;6.310;2023-07-20T07:54:13;2.83;;;1.30;;
54428;SDS011;40337;52.978;6.310;2023-07-20T07:56:39;2.40;;;1.20;;
54428;SDS011;40337;52.978;6.310;2023-07-20T07:59:05;2.80;;;1.20;;
54428;SDS011;40337;52.978;6.310;2023-07-20T08:01:31;2.55;;;1.10;;
54428;SDS011;40337;52.978;6.310;2023-07-20T08:03:57;3.20;;;1.20;;
54428;SDS011;40337;52.978;6.310;2023-07-20T08:06:23;2.22;;;1.13;;
54428;SDS011;40337;52.978;6.310;2023-07-20T08:08:49;3.15;;;1.17;;
54428;SDS011;40337;52.978;6.310;2023-07-20T08:11:15;2.78;;;1.20;;
54428;SDS011;40337;52.978;6.310;2023-07-20T08:13:40;2.80;;;1.33;;
54428;SDS011;40337;52.978;6.310;2023-07-20T08:16:06;2.92;;;1.30;;
54428;SDS011;40337;52.978;6.310;2023-07-20T08:18:32;4.30;;;1.13;;
54428;SDS011;40337;52.978;6.310;2023-07-20T08:20:57;2.78;;;1.10;;
54428;SDS011;40337;52.978;6.310;2023-07-20T08:23:23;2.97;;;1.20;;
54428;SDS011;40337;52.978;6.310;2023-07-20T08:25:48;1.92;;;1.00;;
54428;SDS011;40337;52.978;6.310;2023-07-20T08:28:15;3.90;;;1.30;;
54428;SDS011;40337;52.978;6.310;2023-07-20T08:30:47;2.30;;;1.13;;
54428;SDS011;40337;52.978;6.310;2023-07-20T08:33:14;2.58;;;1.10;;
54428;SDS011;40337;52.978;6.310;2023-07-20T08:35:41;2.25;;;1.20;;
54428;SDS011;40337;52.978;6.310;2023-07-20T08:38:07;2.55;;;1.23;;
54428;SDS011;40337;52.978;6.310;2023-07-20T08:40:33;3.28;;;1.30;;
54428;SDS011;40337;52.978;6.310;2023-07-20T08:43:04;3.50;;;1.50;;
54428;SDS011;40337;52.978;6.310;2023-07-20T08:45:32;4.15;;;1.50;;
54428;SDS011;40337;52.978;6.310;2023-07-20T08:47:59;1.80;;;1.15;;
54428;SDS011;40337;52.978;6.310;2023-07-20T08:50:26;3.80;;;1.63;;
54428;SDS011;40337;52.978;6.310;2023-07-20T08:52:55;3.97;;;1.40;;
54428;SDS011;40337;52.978;6.310;2023-07-20T08:55:23;2.88;;;1.42;;
54428;SDS011;40337;52.978;6.310;2023-07-20T08:57:50;3.80;;;1.40;;
54428;SDS011;40337;52.978;6.310;2023-07-20T09:00:19;3.90;;;1.60;;
54428;SDS011;40337;52.978;6.310;2023-07-20T09:02:45;4.05;;;1.50;;
54428;SDS011;40337;52.978;6.310;2023-07-20T09:05:12;3.13;;;1.60;;
54428;SDS011;40337;52.978;6.310;2023-07-20T09:07:39;2.72;;;1.50;;
54428;SDS011;40337;52.978;6.310;2023-07-20T09:10:06;3.38;;;1.63;;
54428;SDS011;40337;52.978;6.310;2023-07-20T09:12:35;3.63;;;1.50;;
54428;SDS011;40337;52.978;6.310;2023-07-20T09:15:03;3.92;;;1.48;;
54428;SDS011;40337;52.978;6.310;2023-07-20T09:17:31;3.72;;;1.80;;
54428;SDS011;40337;52.978;6.310;2023-07-20T09:19:56;3.90;;;1.90;;
54428;SDS011;40337;52.978;6.310;2023-07-20T09:22:22;3.90;;;1.75;;
54428;SDS011;40337;52.978;6.310;2023-07-20T09:24:55;4.97;;;1.52;;
54428;SDS011;40337;52.978;6.310;2023-07-20T09:27:21;3.47;;;1.40;;
54428;SDS011;40337;52.978;6.310;2023-07-20T09:29:47;3.80;;;1.60;;
54428;SDS011;40337;52.978;6.310;2023-07-20T09:32:13;4.05;;;1.50;;
54428;SDS011;40337;52.978;6.310;2023-07-20T09:34:45;2.75;;;1.40;;
54428;SDS011;40337;52.978;6.310;2023-07-20T09:37:10;4.28;;;1.50;;
54428;SDS011;40337;52.978;6.310;2023-07-20T09:39:45;7.97;;;1.70;;
54428;SDS011;40337;52.978;6.310;2023-07-20T09:42:14;2.85;;;1.20;;
54428;SDS011;40337;52.978;6.310;2023-07-20T09:44:40;4.05;;;1.70;;
54428;SDS011;40337;52.978;6.310;2023-07-20T09:47:08;2.92;;;1.58;;
54428;SDS011;40337;52.978;6.310;2023-07-20T09:49:40;2.92;;;1.83;;
54428;SDS011;40337;52.978;6.310;2023-07-20T09:52:06;3.08;;;1.40;;
54428;SDS011;40337;52.978;6.310;2023-07-20T09:54:37;6.28;;;1.60;;
54428;SDS011;40337;52.978;6.310;2023-07-20T09:57:03;4.22;;;1.60;;
54428;SDS011;40337;52.978;6.310;2023-07-20T09:59:32;3.75;;;1.63;;
54428;SDS011;40337;52.978;6.310;2023-07-20T10:01:58;3.00;;;1.60;;
54428;SDS011;40337;52.978;6.310;2023-07-20T10:04:29;3.70;;;1.60;;
54428;SDS011;40337;52.978;6.310;2023-07-20T10:06:58;4.80;;;1.48;;
54428;SDS011;40337;52.978;6.310;2023-07-20T10:09:25;3.35;;;1.50;;
54428;SDS011;40337;52.978;6.310;2023-07-20T10:11:52;4.22;;;1.63;;
54428;SDS011;40337;52.978;6.310;2023-07-20T10:14:22;3.10;;;1.65;;
54428;SDS011;40337;52.978;6.310;2023-07-20T10:16:51;4.38;;;1.92;;
54428;SDS011;40337;52.978;6.310;2023-07-20T10:19:24;7.75;;;1.83;;
54428;SDS011;40337;52.978;6.310;2023-07-20T10:22:12;5.10;;;1.83;;
54428;SDS011;40337;52.978;6.310;2023-07-20T10:24:44;3.30;;;1.70;;
54428;SDS011;40337;52.978;6.310;2023-07-20T10:27:10;2.20;;;1.35;;
54428;SDS011;40337;52.978;6.310;2023-07-20T10:29:36;4.10;;;2.00;;
54428;SDS011;40337;52.978;6.310;2023-07-20T10:32:03;3.45;;;1.80;;
54428;SDS011;40337;52.978;6.310;2023-07-20T10:34:29;3.95;;;1.80;;
54428;SDS011;40337;52.978;6.310;2023-07-20T10:36:54;5.50;;;1.90;;
54428;SDS011;40337;52.978;6.310;2023-07-20T10:39:32;3.72;;;1.80;;
54428;SDS011;40337;52.978;6.310;2023-07-20T10:42:07;5.05;;;2.00;;
54428;SDS011;40337;52.978;6.310;2023-07-20T10:44:36;7.43;;;2.03;;
54428;SDS011;40337;52.978;6.310;2023-07-20T10:47:03;4.75;;;2.00;;
54428;SDS011;40337;52.978;6.310;2023-07-20T10:49:33;3.75;;;1.98;;
54428;SDS011;40337;52.978;6.310;2023-07-20T10:52:03;3.30;;;1.90;;
54428;SDS011;40337;52.978;6.310;2023-07-20T10:56:56;5.72;;;2.20;;
54428;SDS011;40337;52.978;6.310;2023-07-20T10:59:42;4.13;;;2.30;;
54428;SDS011;40337;52.978;6.310;2023-07-20T11:02:07;4.85;;;1.80;;
54428;SDS011;40337;52.978;6.310;2023-07-20T11:04:40;5.32;;;1.88;;
54428;SDS011;40337;52.978;6.310;2023-07-20T11:07:07;3.05;;;1.73;;
54428;SDS011;40337;52.978;6.310;2023-07-20T11:09:36;3.45;;;1.70;;
54428;SDS011;40337;52.978;6.310;2023-07-20T11:12:09;4.90;;;2.00;;
54428;SDS011;40337;52.978;6.310;2023-07-20T11:17:32;5.78;;;2.10;;
54428;SDS011;40337;52.978;6.310;2023-07-20T11:19:58;3.75;;;1.73;;
54428;SDS011;40337;52.978;6.310;2023-07-20T11:22:29;3.95;;;1.83;;
54428;SDS011;40337;52.978;6.310;2023-07-20T11:24:56;4.45;;;1.80;;
54428;SDS011;40337;52.978;6.310;2023-07-20T11:27:23;4.68;;;1.95;;
54428;SDS011;40337;52.978;6.310;2023-07-20T11:29:48;6.43;;;2.22;;
54428;SDS011;40337;52.978;6.310;2023-07-20T11:32:21;3.50;;;1.83;;
54428;SDS011;40337;52.978;6.310;2023-07-20T11:34:48;5.35;;;2.10;;
54428;SDS011;40337;52.978;6.310;2023-07-20T11:37:14;4.25;;;1.90;;
54428;SDS011;40337;52.978;6.310;2023-07-20T11:39:44;5.57;;;2.10;;
54428;SDS011;40337;52.978;6.310;2023-07-20T11:42:10;3.50;;;1.73;;
54428;SDS011;40337;52.978;6.310;2023-07-20T11:44:36;5.60;;;2.10;;
54428;SDS011;40337;52.978;6.310;2023-07-20T11:47:10;4.65;;;1.70;;
54428;SDS011;40337;52.978;6.310;2023-07-20T11:49:37;4.63;;;1.87;;
54428;SDS011;40337;52.978;6.310;2023-07-20T11:52:08;4.68;;;1.80;;
54428;SDS011;40337;52.978;6.310;2023-07-20T11:54:35;3.42;;;1.73;;
54428;SDS011;40337;52.978;6.310;2023-07-20T11:57:04;2.88;;;1.60;;
54428;SDS011;40337;52.978;6.310;2023-07-20T11:59:33;3.60;;;1.75;;
54428;SDS011;40337;52.978;6.310;2023-07-20T12:02:00;3.60;;;1.58;;
54428;SDS011;40337;52.978;6.310;2023-07-20T12:04:28;4.80;;;1.73;;
54428;SDS011;40337;52.978;6.310;2023-07-20T12:06:54;3.13;;;1.65;;
54428;SDS011;40337;52.978;6.310;2023-07-20T12:09:23;2.92;;;1.42;;
54428;SDS011;40337;52.978;6.310;2023-07-20T12:11:48;2.53;;;1.25;;
54428;SDS011;40337;52.978;6.310;2023-07-20T12:14:15;3.30;;;1.70;;
54428;SDS011;40337;52.978;6.310;2023-07-20T12:16:41;3.63;;;1.73;;
54428;SDS011;40337;52.978;6.310;2023-07-20T12:19:07;3.97;;;1.80;;
54428;SDS011;40337;52.978;6.310;2023-07-20T12:21:38;3.35;;;1.50;;
54428;SDS011;40337;52.978;6.310;2023-07-20T12:24:05;3.63;;;1.80;;
54428;SDS011;40337;52.978;6.310;2023-07-20T12:26:31;3.35;;;1.80;;
54428;SDS011;40337;52.978;6.310;2023-07-20T12:28:58;4.05;;;1.88;;
54428;SDS011;40337;52.978;6.310;2023-07-20T12:31:24;4.03;;;1.85;;
54428;SDS011;40337;52.978;6.310;2023-07-20T12:33:51;4.65;;;1.95;;
54428;SDS011;40337;52.978;6.310;2023-07-20T12:36:18;4.07;;;1.90;;
54428;SDS011;40337;52.978;6.310;2023-07-20T12:38:44;4.38;;;2.15;;
54428;SDS011;40337;52.978;6.310;2023-07-20T12:41:11;4.63;;;1.63;;
54428;SDS011;40337;52.978;6.310;2023-07-20T12:43:38;4.13;;;1.80;;
54428;SDS011;40337;52.978;6.310;2023-07-20T12:46:05;5.07;;;1.70;;
54428;SDS011;40337;52.978;6.310;2023-07-20T12:48:30;7.60;;;2.00;;
54428;SDS011;40337;52.978;6.310;2023-07-20T12:50:56;5.05;;;1.80;;
54428;SDS011;40337;52.978;6.310;2023-07-20T12:53:22;5.05;;;1.55;;
54428;SDS011;40337;52.978;6.310;2023-07-20T12:55:47;2.88;;;1.70;;
54428;SDS011;40337;52.978;6.310;2023-07-20T12:58:13;3.08;;;1.63;;
54428;SDS011;40337;52.978;6.310;2023-07-20T13:00:39;4.78;;;1.95;;
54428;SDS011;40337;52.978;6.310;2023-07-20T13:03:06;4.88;;;1.80;;
54428;SDS011;40337;52.978;6.310;2023-07-20T13:05:33;3.75;;;1.63;;
54428;SDS011;40337;52.978;6.310;2023-07-20T13:08:00;3.17;;;1.70;;
54428;SDS011;40337;52.978;6.310;2023-07-20T13:10:26;4.75;;;1.83;;
54428;SDS011;40337;52.978;6.310;2023-07-20T13:12:52;5.57;;;1.67;;
54428;SDS011;40337;52.978;6.310;2023-07-20T13:15:17;4.78;;;1.60;;
54428;SDS011;40337;52.978;6.310;2023-07-20T13:17:44;6.43;;;1.90;;
54428;SDS011;40337;52.978;6.310;2023-07-20T13:20:10;3.55;;;1.77;;
54428;SDS011;40337;52.978;6.310;2023-07-20T13:22:36;4.63;;;1.67;;
54428;SDS011;40337;52.978;6.310;2023-07-20T13:25:06;4.57;;;1.55;;
54428;SDS011;40337;52.978;6.310;2023-07-20T13:27:32;3.28;;;1.80;;
54428;SDS011;40337;52.978;6.310;2023-07-20T13:29:59;5.05;;;1.75;;
54428;SDS011;40337;52.978;6.310;2023-07-20T13:32:26;3.90;;;1.58;;
54428;SDS011;40337;52.978;6.310;2023-07-20T13:34:52;4.72;;;1.80;;
54428;SDS011;40337;52.978;6.310;2023-07-20T13:37:17;3.85;;;1.70;;
54428;SDS011;40337;52.978;6.310;2023-07-20T13:39:43;9.15;;;1.80;;
54428;SDS011;40337;52.978;6.310;2023-07-20T13:42:09;3.92;;;1.40;;
54428;SDS011;40337;52.978;6.310;2023-07-20T13:44:37;3.90;;;1.67;;
54428;SDS011;40337;52.978;6.310;2023-07-20T13:47:02;3.85;;;1.40;;
54428;SDS011;40337;52.978;6.310;2023-07-20T13:49:30;5.97;;;1.70;;
54428;SDS011;40337;52.978;6.310;2023-07-20T13:51:56;3.47;;;1.85;;
54428;SDS011;40337;52.978;6.310;2023-07-20T13:54:22;2.83;;;1.50;;
54428;SDS011;40337;52.978;6.310;2023-07-20T13:56:48;8.20;;;1.60;;
54428;SDS011;40337;52.978;6.310;2023-07-20T13:59:13;3.17;;;1.38;;
54428;SDS011;40337;52.978;6.310;2023-07-20T14:01:39;4.15;;;1.30;;
54428;SDS011;40337;52.978;6.310;2023-07-20T14:04:04;4.57;;;1.25;;
54428;SDS011;40337;52.978;6.310;2023-07-20T14:06:30;5.75;;;1.60;;
54428;SDS011;40337;52.978;6.310;2023-07-20T14:08:57;4.43;;;1.50;;
54428;SDS011;40337;52.978;6.310;2023-07-20T14:11:23;7.35;;;2.03;;
54428;SDS011;40337;52.978;6.310;2023-07-20T14:13:49;4.25;;;1.60;;
54428;SDS011;40337;52.978;6.310;2023-07-20T14:16:16;7.95;;;1.52;;
54428;SDS011;40337;52.978;6.310;2023-07-20T14:18:42;6.25;;;1.60;;
54428;SDS011;40337;52.978;6.310;2023-07-20T14:21:08;4.30;;;1.75;;
54428;SDS011;40337;52.978;6.310;2023-07-20T14:23:33;5.22;;;1.38;;
54428;SDS011;40337;52.978;6.310;2023-07-20T14:26:01;2.55;;;1.30;;
54428;SDS011;40337;52.978;6.310;2023-07-20T14:28:30;8.40;;;1.85;;
54428;SDS011;40337;52.978;6.310;2023-07-20T14:30:56;4.38;;;1.70;;
54428;SDS011;40337;52.978;6.310;2023-07-20T14:33:21;4.85;;;1.40;;
54428;SDS011;40337;52.978;6.310;2023-07-20T14:35:47;2.42;;;1.35;;
54428;SDS011;40337;52.978;6.310;2023-07-20T14:38:12;2.83;;;1.27;;
54428;SDS011;40337;52.978;6.310;2023-07-20T14:40:38;4.78;;;1.40;;
54428;SDS011;40337;52.978;6.310;2023-07-20T14:43:03;5.10;;;1.40;;
54428;SDS011;40337;52.978;6.310;2023-07-20T14:45:29;7.50;;;1.63;;
54428;SDS011;40337;52.978;6.310;2023-07-20T14:47:54;5.80;;;1.63;;
54428;SDS011;40337;52.978;6.310;2023-07-20T14:50:20;5.07;;;1.63;;
54428;SDS011;40337;52.978;6.310;2023-07-20T14:52:46;2.63;;;1.30;;
54428;SDS011;40337;52.978;6.310;2023-07-20T14:55:12;3.40;;;1.40;;
54428;SDS011;40337;52.978;6.310;2023-07-20T14:57:37;2.83;;;1.20;;
54428;SDS011;40337;52.978;6.310;2023-07-20T15:00:04;2.03;;;1.10;;